• Join FlightAware (Why Join?)
  • Login
  • US Flag 
09:59PM EDT


 

Airport Tracker/Info


-or-


 

Live Flight TrackerFlight Track Log ✈ UAL1647 ✈ 22-Apr-2013 ✈ KORD - KIAH

Flight Track Log - Related Links

Times and Time Zones

All times are in EDT time to prevent confusion due to time zone crossing. See the UAL1647 flight status page for this flight to view local times or setup timezone preferences in your user account.

Time Position Orientation Groundspeed Altitude Reporting Facility
EDT Latitude Longitude Course Direction KTS MPH feet Rate Location/Type
08:22PM 41.9000 -87.9167 194° South 201 231 4,200  Level Chicago TRACON
08:23PM 41.8747 -87.9211 187° South 205 236 5,200 3,300 Climbing Chicago Center
08:24PM 41.8053 -87.9139 176° South 244 281 8,900 3,480 Climbing Chicago Center
08:25PM 41.7317 -87.9325 191° South 269 310 12,400 2,580 Climbing Chicago Center
08:26PM 41.5111 -88.2532 189° South  Level Estimated
08:26PM 41.6472 -87.9583 193° South 316 364 14,300  Level Chicago Center
08:27PM 41.4169 -88.3220 201° Southwest  Level Estimated
08:27PM 41.5464 -87.9881 192° South 369 425 16,700  Level Chicago Center
08:28PM 41.3240 -88.3894 194° South  Level Estimated
08:28PM 41.4344 -88.0225 193° South 392 451 19,400  Level Chicago Center
08:29PM 41.3200 -88.0589 193° South 403 464 22,000 2,100 Climbing Chicago Center
08:30PM 41.2072 -88.0969 194° South 414 476 23,800 1,680 Climbing Chicago Center
08:31PM 41.0858 -88.1308 192° South 438 504 25,500 1,800 Climbing Chicago Center
08:32PM 40.9381 -88.1722 192° South 450 518 27,600 1,860 Climbing Chicago Center
08:33PM 40.8128 -88.2075 192° South 457 526 29,400 1,740 Climbing Chicago Center
08:34PM 40.6881 -88.2428 192° South 459 528 31,200 1,200 Climbing Chicago Center
08:35PM 40.5639 -88.2783 192° South 459 528 32,000 360 Climbing Chicago Center
08:36PM 40.4369 -88.3136 192° South 465 535 32,000  Level Chicago Center
08:37PM 40.3117 -88.3503 193° South 464 534 32,000 480 Level Chicago Center
08:38PM 40.1975 -88.4367 210° Southwest 456 525 33,100 1,200 Climbing Chicago Center
08:39PM 40.1083 -88.5028 210° Southwest 457 526 34,200 1,440 Climbing Kansas City Center
08:40PM 39.9994 -88.5825 209° Southwest 452 520 35,800 840 Climbing Kansas City Center
08:41PM 39.8928 -88.6606 209° Southwest 442 509 36,000 60 Climbing Kansas City Center
08:42PM 39.7853 -88.7394 209° Southwest 442 509 36,000 60 Level Kansas City Center
08:43PM 39.6772 -88.8175 209° Southwest 442 509 36,200 840 Climbing Kansas City Center
08:44PM 39.5714 -88.8969 210° Southwest 440 506 37,800 840 Climbing Kansas City Center
08:45PM 39.4458 -88.9878 209° Southwest 433 498 38,000 60 Climbing Kansas City Center
08:46PM 39.3364 -89.0642 208° Southwest 436 502 38,000  Level Kansas City Center
08:47PM 39.2303 -89.1425 210° Southwest 438 504 38,000  Level Kansas City Center
08:48PM 39.1169 -89.2258 210° Southwest 437 503 38,000 240 Level Kansas City Center
08:49PM 39.0092 -89.3014 209° Southwest 440 506 38,500 600 Climbing Kansas City Center
08:50PM 38.9017 -89.3769 209° Southwest 440 506 39,300 720 Climbing Kansas City Center
08:51PM 38.7944 -89.4539 209° Southwest 440 506 40,000 300 Climbing Kansas City Center
08:52PM 38.6778 -89.5364 209° Southwest 444 511 40,000  Level Kansas City Center
08:53PM 38.5697 -89.6128 209° Southwest 443 510 40,000  Level Kansas City Center
08:54PM 38.4753 -89.6781 208° Southwest 444 511 40,000  Level Kansas City Center
08:55PM 38.3525 -89.7658 209° Southwest 441 507 40,000  Level Kansas City Center
08:56PM 38.2358 -89.8458 208° Southwest 440 506 40,000  Level Kansas City Center
08:57PM 38.1281 -89.9211 209° Southwest 443 510 40,000  Level Kansas City Center
08:58PM 38.0189 -89.9958 208° Southwest 445 512 40,000  Level Kansas City Center
08:59PM 37.9092 -90.0706 208° Southwest 448 516 40,000  Level Kansas City Center
09:00PM 37.7992 -90.1475 209° Southwest 451 519 40,000  Level Kansas City Center
09:01PM 37.6886 -90.2253 209° Southwest 454 522 40,000  Level Kansas City Center
09:02PM 37.5794 -90.3011 209° Southwest 450 518 40,000  Level Kansas City Center
09:03PM 37.4681 -90.3742 208° Southwest 451 519 40,000  Level Kansas City Center
09:04PM 37.3581 -90.4481 208° Southwest 449 517 40,000  Level Kansas City Center
09:05PM 37.2964 -90.4897 208° Southwest 451 519 40,000  Level Memphis Center
09:06PM 37.1964 -90.5600 209° Southwest 451 519 40,000  Level Memphis Center
09:07PM 37.0858 -90.6325 208° Southwest 451 519 40,000  Level Memphis Center
09:08PM 36.9753 -90.7075 208° Southwest 456 525 40,000  Level Memphis Center
09:09PM 36.8644 -90.7797 208° Southwest 456 525 40,000  Level Memphis Center
09:10PM 36.7558 -90.8489 207° Southwest 456 525 40,000  Level Memphis Center
09:11PM 36.6514 -90.9181 208° Southwest 450 518 40,000  Level Memphis Center
09:12PM 36.5469 -90.9872 208° Southwest 445 512 40,000  Level Memphis Center
09:13PM 36.4403 -91.0586 208° Southwest 440 506 40,000  Level Memphis Center
09:14PM 36.3314 -91.1297 208° Southwest 440 506 40,000  Level Memphis Center
09:15PM 36.2225 -91.1983 207° Southwest 440 506 40,000  Level Memphis Center
09:16PM 36.1158 -91.2664 207° Southwest 440 506 40,000  Level Memphis Center
09:17PM 36.0108 -91.3397 209° Southwest 440 506 40,000  Level Memphis Center
09:18PM 35.9000 -91.4078 206° Southwest 440 506 40,000  Level Memphis Center
09:19PM 35.7886 -91.4806 208° Southwest 430 495 40,000  Level Memphis Center
09:20PM 35.6817 -91.5506 208° Southwest 430 495 40,000  Level Memphis Center
09:21PM 35.5725 -91.6181 207° Southwest 442 509 40,000  Level Memphis Center
09:22PM 35.4675 -91.6853 208° Southwest 437 503 40,000  Level Memphis Center
09:23PM 35.3606 -91.7522 207° Southwest 437 503 40,000  Level Memphis Center
09:24PM 35.2492 -91.8217 207° Southwest 442 509 40,000  Level Memphis Center
09:25PM 35.1397 -91.8908 207° Southwest 442 509 40,000  Level Memphis Center
09:26PM 35.0325 -91.9572 207° Southwest 442 509 40,000  Level Memphis Center
09:27PM 34.9253 -92.0236 207° Southwest 442 509 40,000  Level Memphis Center
09:28PM 34.8200 -92.0925 208° Southwest 442 509 40,000  Level Memphis Center
09:29PM 34.7128 -92.1561 206° Southwest 437 503 40,000  Level Memphis Center
09:30PM 34.5953 -92.1939 195° South 437 503 40,000  Level Memphis Center
09:31PM 34.4719 -92.2189 189° South 443 510 40,000  Level Memphis Center
09:32PM 34.3631 -92.2392 189° South 443 510 40,000  Level Memphis Center
09:34PM 34.0772 -92.2933 189° South 453 521 40,000  Level Fort Worth Center
09:35PM 33.9550 -92.3156 189° South 453 521 40,000  Level Fort Worth Center
09:36PM 33.8350 -92.3400 190° South 453 521 40,000  Level Fort Worth Center
09:37PM 33.7108 -92.3622 188° South 446 513 40,000  Level Fort Worth Center
09:38PM 33.5781 -92.3850 188° South 441 507 40,000  Level Fort Worth Center
09:39PM 33.4581 -92.4092 190° South 446 513 40,000  Level Fort Worth Center
09:40PM 33.3378 -92.4283 188° South 446 513 40,000  Level Fort Worth Center
09:41PM 33.2156 -92.4528 189° South 446 513 40,000  Level Fort Worth Center
09:42PM 33.0911 -92.4744 188° South 446 513 40,000  Level Fort Worth Center
09:43PM 32.9669 -92.4961 188° South 446 513 40,000  Level Fort Worth Center
09:45PM 32.7200 -92.5444 189° South 449 517 40,000 -60 Level Houston Center
09:46PM 32.6056 -92.5631 188° South 453 521 39,900  Descending Houston Center
09:47PM 32.4800 -92.5922 191° South 459 528 40,000  Climbing Houston Center
09:48PM 32.3550 -92.6131 188° South 455 524 40,000  Level Houston Center
09:49PM 32.2272 -92.6342 188° South 461 531 40,000  Level Houston Center
09:50PM 32.1014 -92.6575 189° South 459 528 40,000  Level Houston Center
09:51PM 31.9536 -92.6947 192° South 453 521 40,000  Level Houston Center
09:52PM 31.8628 -92.7875 221° Southwest 431 496 40,000  Level Houston Center
09:53PM 31.7706 -92.8739 219° Southwest 427 491 40,000 -60 Level Houston Center
09:54PM 31.6789 -92.9622 219° Southwest 427 491 39,900 -60 Descending Houston Center
09:55PM 31.5875 -93.0517 220° Southwest 429 494 39,900  Level Houston Center
09:56PM 31.4947 -93.1392 219° Southwest 429 494 39,900  Level Houston Center
09:57PM 31.4028 -93.2275 219° Southwest 430 495 40,000  Climbing Houston Center
09:58PM 31.3067 -93.3197 219° Southwest 430 495 40,000 -60 Level Houston Center
10:00PM 31.2186 -93.4011 218° Southwest 426 490 39,900 -300 Descending Houston Center
10:01PM 31.1313 -93.4807 218° Southwest  Level FlightAware Approximate
10:02PM 31.0192 -93.5928 218° Southwest 421 484 39,100  Level Houston Center
10:03PM 30.9286 -93.6775 219° Southwest 419 482 36,300 -3,060 Descending Houston Center
10:04PM 30.8386 -93.7642 220° Southwest 422 486 32,900 -3,660 Descending Houston Center
10:05PM 30.7436 -93.8519 218° Southwest 436 502 28,900 -3,660 Descending Houston Center
10:06PM 30.6494 -93.9425 220° Southwest 443 510 25,500 -3,300 Descending Houston Center
10:07PM 30.5514 -94.0333 219° Southwest 452 520 22,300 -3,360 Descending Houston Center
10:07PM 30.4694 -94.1106 219° Southwest 442 509 19,700 -3,060 Descending Houston Center
10:08PM 30.4581 -94.1217 220° Southwest 439 505 19,200 -3,840 Descending Houston Center
10:08PM 30.3936 -94.2153 231° Southwest 410 472 15,800 -4,560 Descending Houston Center
10:09PM 30.3803 -94.2486 245° Southwest 409 471 14,600 -3,060 Descending Houston Center
10:09PM 30.3494 -94.3203 244° Southwest 403 464 13,000 -2,460 Descending Houston Center
10:10PM 30.3314 -94.3642 245° Southwest 404 465 12,100 -1,320 Descending Houston Center
10:10PM 30.3022 -94.4381 245° Southwest 386 444 11,700 -600 Descending Houston Center
10:11PM 30.2858 -94.4750 243° Southwest 390 449 11,500 -660 Descending Houston Center
10:11PM 30.2592 -94.5356 243° Southwest 383 441 11,100 -600 Descending Houston Center
10:12PM 30.2419 -94.5811 246° West 384 442 10,900 -720 Descending Houston Center
10:12PM 30.2081 -94.6583 243° Southwest 380 437 10,300 -720 Descending Houston Center
10:13PM 30.1956 -94.6900 245° Southwest 380 437 10,200 -300 Descending Houston Center
10:13PM 30.1617 -94.7658 243° Southwest 368 423 10,000 -120 Descending Houston Center
10:14PM 30.1511 -94.7956 248° West 371 427 10,100  Climbing Houston Center
10:14PM 30.1125 -94.8881 244° Southwest 367 422 10,000  Descending Houston Center
10:15PM 30.1097 -94.9028 258° West 368 423 10,100  Climbing Houston Center
10:15PM 30.1064 -94.9783 267° West 372 428 10,000  Descending Houston Center
10:16PM 30.1069 -95.0428 271° West 365 420 10,100 -120 Climbing Houston Center
10:16PM 30.1061 -95.0869 269° West 322 371 9,900 -540 Descending Houston Center
10:17PM 30.1069 -95.1389 271° West 322 371 9,600 -1,320 Descending Houston Center
10:17PM 30.1053 -95.1908 268° West 269 310 8,500 -1,620 Descending Houston Center
10:18PM 30.1075 -95.2244 274° West 280 322 8,000 -1,560 Descending Houston Center
10:18PM 30.1069 -95.2778 269° West 275 316 6,900 -1,500 Descending Houston Center
10:19PM 30.1075 -95.3117 271° West 274 315 6,500 -720 Descending Houston Center
10:19PM 30.1061 -95.3622 268° West 267 307 6,200 -420 Descending Houston Center
10:20PM 30.1067 -95.3919 271° West 262 302 6,100 -900 Descending Houston Center
10:20PM 30.1072 -95.4419 271° West 222 255 5,300 -1,020 Descending Houston Center
10:21PM 30.1075 -95.4639 271° West 231 266 5,100 -1,020 Descending Houston Center
10:21PM 30.1075 -95.5142 270° West 226 260 4,300 -1,020 Descending Houston Center
10:22PM 30.1078 -95.5356 271° West 225 259 4,100 -1,140 Descending Houston Center
10:23PM 30.0878 -95.5769 241° Southwest 216 249 3,200 -1,020 Descending Houston Center
10:23PM 30.0717 -95.5817 194° South 230 265 3,100 -240 Descending Houston Center
10:24PM 30.0317 -95.5811 179° South 211 243 3,000  Descending Houston Center
10:24PM 30.0144 -95.5750 163° South 220 253 3,100  Climbing Houston Center
10:25PM 29.9894 -95.5331 125° Southeast 208 239 3,000 -300 Descending Houston Center
10:25PM 29.9922 -95.5075 83° East 209 241 2,800 -900 Descending Houston Center
10:26PM 29.9925 -95.4750 89° East 180 207 2,100 -1,200 Descending Houston Center